sensor_id;sensor_type;location;lat;lon;timestamp;P1;durP1;ratioP1;P2;durP2;ratioP2
19780;SDS011;10050;55.492;13.506;2022-10-13T00:00:29;7.70;;;2.30;;
19780;SDS011;10050;55.492;13.506;2022-10-13T00:02:58;7.67;;;2.00;;
19780;SDS011;10050;55.492;13.506;2022-10-13T00:05:25;8.33;;;2.53;;
19780;SDS011;10050;55.492;13.506;2022-10-13T00:07:51;7.63;;;2.10;;
19780;SDS011;10050;55.492;13.506;2022-10-13T00:10:17;7.47;;;2.00;;
19780;SDS011;10050;55.492;13.506;2022-10-13T00:12:43;6.87;;;2.23;;
19780;SDS011;10050;55.492;13.506;2022-10-13T00:15:08;8.97;;;2.57;;
19780;SDS011;10050;55.492;13.506;2022-10-13T00:17:34;7.00;;;2.10;;
19780;SDS011;10050;55.492;13.506;2022-10-13T00:20:03;7.20;;;2.50;;
19780;SDS011;10050;55.492;13.506;2022-10-13T00:22:30;7.10;;;2.00;;
19780;SDS011;10050;55.492;13.506;2022-10-13T00:24:56;7.33;;;2.20;;
19780;SDS011;10050;55.492;13.506;2022-10-13T00:27:22;9.27;;;2.40;;
19780;SDS011;10050;55.492;13.506;2022-10-13T00:29:48;8.47;;;2.50;;
19780;SDS011;10050;55.492;13.506;2022-10-13T00:32:13;12.57;;;3.00;;
19780;SDS011;10050;55.492;13.506;2022-10-13T00:34:39;6.90;;;2.30;;
19780;SDS011;10050;55.492;13.506;2022-10-13T00:37:05;8.03;;;2.60;;
19780;SDS011;10050;55.492;13.506;2022-10-13T00:39:31;9.87;;;2.50;;
19780;SDS011;10050;55.492;13.506;2022-10-13T00:41:57;6.50;;;2.00;;
19780;SDS011;10050;55.492;13.506;2022-10-13T00:47:17;8.37;;;3.00;;
19780;SDS011;10050;55.492;13.506;2022-10-13T00:49:43;7.63;;;2.37;;
19780;SDS011;10050;55.492;13.506;2022-10-13T00:52:09;9.43;;;2.50;;
19780;SDS011;10050;55.492;13.506;2022-10-13T00:54:35;15.00;;;2.90;;
19780;SDS011;10050;55.492;13.506;2022-10-13T00:57:01;7.27;;;2.40;;
19780;SDS011;10050;55.492;13.506;2022-10-13T00:59:28;5.47;;;2.17;;
19780;SDS011;10050;55.492;13.506;2022-10-13T01:01:54;7.63;;;2.47;;
19780;SDS011;10050;55.492;13.506;2022-10-13T01:04:22;8.57;;;2.13;;
19780;SDS011;10050;55.492;13.506;2022-10-13T01:06:52;6.27;;;2.63;;
19780;SDS011;10050;55.492;13.506;2022-10-13T01:09:19;5.80;;;2.17;;
19780;SDS011;10050;55.492;13.506;2022-10-13T01:12:02;9.97;;;2.20;;
19780;SDS011;10050;55.492;13.506;2022-10-13T01:31:20;10.03;;;2.53;;
19780;SDS011;10050;55.492;13.506;2022-10-13T01:34:05;6.73;;;2.30;;
19780;SDS011;10050;55.492;13.506;2022-10-13T01:36:49;8.77;;;2.50;;
19780;SDS011;10050;55.492;13.506;2022-10-13T01:42:05;5.77;;;2.10;;
19780;SDS011;10050;55.492;13.506;2022-10-13T01:44:40;5.13;;;2.03;;
19780;SDS011;10050;55.492;13.506;2022-10-13T01:47:11;4.83;;;1.93;;
19780;SDS011;10050;55.492;13.506;2022-10-13T01:49:40;5.63;;;1.93;;
19780;SDS011;10050;55.492;13.506;2022-10-13T01:52:09;7.67;;;2.70;;
19780;SDS011;10050;55.492;13.506;2022-10-13T01:54:37;9.77;;;2.07;;
19780;SDS011;10050;55.492;13.506;2022-10-13T01:57:02;4.80;;;2.20;;
19780;SDS011;10050;55.492;13.506;2022-10-13T01:59:28;8.83;;;2.30;;
19780;SDS011;10050;55.492;13.506;2022-10-13T02:05:07;7.40;;;2.20;;
19780;SDS011;10050;55.492;13.506;2022-10-13T02:07:43;8.63;;;2.30;;
19780;SDS011;10050;55.492;13.506;2022-10-13T02:10:33;9.23;;;2.40;;
19780;SDS011;10050;55.492;13.506;2022-10-13T02:13:06;9.07;;;2.17;;
19780;SDS011;10050;55.492;13.506;2022-10-13T02:15:37;6.47;;;2.13;;
19780;SDS011;10050;55.492;13.506;2022-10-13T02:18:08;8.13;;;2.37;;
19780;SDS011;10050;55.492;13.506;2022-10-13T02:20:35;6.23;;;2.33;;
19780;SDS011;10050;55.492;13.506;2022-10-13T02:23:02;3.47;;;1.83;;
19780;SDS011;10050;55.492;13.506;2022-10-13T02:25:32;3.70;;;2.20;;
19780;SDS011;10050;55.492;13.506;2022-10-13T02:27:59;6.80;;;2.20;;
19780;SDS011;10050;55.492;13.506;2022-10-13T02:30:27;3.63;;;2.00;;
19780;SDS011;10050;55.492;13.506;2022-10-13T02:32:54;7.03;;;1.90;;
19780;SDS011;10050;55.492;13.506;2022-10-13T02:35:20;5.50;;;2.37;;
19780;SDS011;10050;55.492;13.506;2022-10-13T02:37:46;5.53;;;2.30;;
19780;SDS011;10050;55.492;13.506;2022-10-13T02:40:12;3.83;;;2.10;;
19780;SDS011;10050;55.492;13.506;2022-10-13T02:42:37;6.60;;;2.40;;
19780;SDS011;10050;55.492;13.506;2022-10-13T02:45:03;6.03;;;2.03;;
19780;SDS011;10050;55.492;13.506;2022-10-13T02:47:29;9.23;;;2.77;;
19780;SDS011;10050;55.492;13.506;2022-10-13T02:49:55;6.93;;;2.63;;
19780;SDS011;10050;55.492;13.506;2022-10-13T02:52:21;4.37;;;1.93;;
19780;SDS011;10050;55.492;13.506;2022-10-13T02:54:47;4.40;;;2.00;;
19780;SDS011;10050;55.492;13.506;2022-10-13T02:57:12;5.40;;;1.80;;
19780;SDS011;10050;55.492;13.506;2022-10-13T02:59:38;6.77;;;2.50;;
19780;SDS011;10050;55.492;13.506;2022-10-13T03:02:04;5.83;;;2.30;;
19780;SDS011;10050;55.492;13.506;2022-10-13T03:04:29;7.27;;;2.37;;
19780;SDS011;10050;55.492;13.506;2022-10-13T03:06:55;5.33;;;2.40;;
19780;SDS011;10050;55.492;13.506;2022-10-13T03:09:21;4.87;;;2.20;;
19780;SDS011;10050;55.492;13.506;2022-10-13T03:11:46;6.67;;;1.90;;
19780;SDS011;10050;55.492;13.506;2022-10-13T03:14:12;10.57;;;2.90;;
19780;SDS011;10050;55.492;13.506;2022-10-13T03:16:37;6.30;;;2.30;;
19780;SDS011;10050;55.492;13.506;2022-10-13T03:19:03;5.37;;;2.43;;
19780;SDS011;10050;55.492;13.506;2022-10-13T03:21:29;6.93;;;2.40;;
19780;SDS011;10050;55.492;13.506;2022-10-13T03:23:54;5.63;;;2.60;;
19780;SDS011;10050;55.492;13.506;2022-10-13T03:26:20;7.40;;;2.60;;
19780;SDS011;10050;55.492;13.506;2022-10-13T03:28:49;9.37;;;2.67;;
19780;SDS011;10050;55.492;13.506;2022-10-13T03:31:15;7.17;;;3.00;;
19780;SDS011;10050;55.492;13.506;2022-10-13T03:33:42;11.43;;;2.60;;
19780;SDS011;10050;55.492;13.506;2022-10-13T03:36:08;6.57;;;2.97;;
19780;SDS011;10050;55.492;13.506;2022-10-13T03:38:35;9.50;;;2.50;;
19780;SDS011;10050;55.492;13.506;2022-10-13T03:41:05;5.20;;;2.47;;
19780;SDS011;10050;55.492;13.506;2022-10-13T03:43:39;7.83;;;2.67;;
19780;SDS011;10050;55.492;13.506;2022-10-13T03:46:05;8.90;;;2.40;;
19780;SDS011;10050;55.492;13.506;2022-10-13T03:48:32;7.03;;;2.53;;
19780;SDS011;10050;55.492;13.506;2022-10-13T03:50:59;6.10;;;2.50;;
19780;SDS011;10050;55.492;13.506;2022-10-13T03:53:28;5.73;;;2.23;;
19780;SDS011;10050;55.492;13.506;2022-10-13T03:55:54;6.80;;;2.53;;
19780;SDS011;10050;55.492;13.506;2022-10-13T03:58:21;10.10;;;2.67;;
19780;SDS011;10050;55.492;13.506;2022-10-13T04:00:48;6.53;;;2.70;;
19780;SDS011;10050;55.492;13.506;2022-10-13T04:03:15;6.77;;;2.60;;
19780;SDS011;10050;55.492;13.506;2022-10-13T04:05:41;6.43;;;2.67;;
19780;SDS011;10050;55.492;13.506;2022-10-13T04:08:07;8.33;;;2.90;;
19780;SDS011;10050;55.492;13.506;2022-10-13T04:10:33;7.67;;;2.63;;
19780;SDS011;10050;55.492;13.506;2022-10-13T04:12:59;7.63;;;2.83;;
19780;SDS011;10050;55.492;13.506;2022-10-13T04:15:25;7.87;;;3.13;;
19780;SDS011;10050;55.492;13.506;2022-10-13T04:17:50;8.00;;;2.73;;
19780;SDS011;10050;55.492;13.506;2022-10-13T04:20:16;9.53;;;3.20;;
19780;SDS011;10050;55.492;13.506;2022-10-13T04:23:00;8.50;;;2.90;;
19780;SDS011;10050;55.492;13.506;2022-10-13T04:25:25;8.87;;;2.80;;
19780;SDS011;10050;55.492;13.506;2022-10-13T04:27:51;9.23;;;2.77;;
19780;SDS011;10050;55.492;13.506;2022-10-13T04:30:17;7.67;;;2.90;;
19780;SDS011;10050;55.492;13.506;2022-10-13T04:32:42;11.00;;;3.03;;
19780;SDS011;10050;55.492;13.506;2022-10-13T04:35:08;7.73;;;2.40;;
19780;SDS011;10050;55.492;13.506;2022-10-13T04:37:33;11.10;;;2.97;;
19780;SDS011;10050;55.492;13.506;2022-10-13T04:39:59;5.73;;;2.60;;
19780;SDS011;10050;55.492;13.506;2022-10-13T04:42:25;7.23;;;2.83;;
19780;SDS011;10050;55.492;13.506;2022-10-13T04:44:50;6.10;;;2.80;;
19780;SDS011;10050;55.492;13.506;2022-10-13T04:47:16;9.60;;;3.20;;
19780;SDS011;10050;55.492;13.506;2022-10-13T04:49:41;9.57;;;3.33;;
19780;SDS011;10050;55.492;13.506;2022-10-13T04:52:07;9.27;;;3.00;;
19780;SDS011;10050;55.492;13.506;2022-10-13T04:54:33;5.07;;;3.23;;
19780;SDS011;10050;55.492;13.506;2022-10-13T04:56:58;7.33;;;3.40;;
19780;SDS011;10050;55.492;13.506;2022-10-13T04:59:24;8.23;;;3.10;;
19780;SDS011;10050;55.492;13.506;2022-10-13T05:01:50;10.07;;;2.87;;
19780;SDS011;10050;55.492;13.506;2022-10-13T05:04:15;6.10;;;3.00;;
19780;SDS011;10050;55.492;13.506;2022-10-13T05:06:41;9.50;;;2.93;;
19780;SDS011;10050;55.492;13.506;2022-10-13T05:09:08;8.97;;;2.93;;
19780;SDS011;10050;55.492;13.506;2022-10-13T05:11:42;6.77;;;3.00;;
19780;SDS011;10050;55.492;13.506;2022-10-13T05:14:07;9.53;;;2.73;;
19780;SDS011;10050;55.492;13.506;2022-10-13T05:16:33;11.27;;;3.70;;
19780;SDS011;10050;55.492;13.506;2022-10-13T05:18:59;8.53;;;3.80;;
19780;SDS011;10050;55.492;13.506;2022-10-13T05:21:25;9.53;;;3.50;;
19780;SDS011;10050;55.492;13.506;2022-10-13T05:23:53;8.03;;;3.10;;
19780;SDS011;10050;55.492;13.506;2022-10-13T05:26:20;6.23;;;3.20;;
19780;SDS011;10050;55.492;13.506;2022-10-13T05:28:48;14.90;;;3.73;;
19780;SDS011;10050;55.492;13.506;2022-10-13T05:31:18;7.50;;;3.07;;
19780;SDS011;10050;55.492;13.506;2022-10-13T05:33:46;9.57;;;3.83;;
19780;SDS011;10050;55.492;13.506;2022-10-13T05:36:14;7.47;;;3.43;;
19780;SDS011;10050;55.492;13.506;2022-10-13T05:38:41;9.43;;;3.27;;
19780;SDS011;10050;55.492;13.506;2022-10-13T05:41:11;10.53;;;4.20;;
19780;SDS011;10050;55.492;13.506;2022-10-13T05:43:38;6.90;;;3.37;;
19780;SDS011;10050;55.492;13.506;2022-10-13T05:46:05;8.13;;;3.03;;
19780;SDS011;10050;55.492;13.506;2022-10-13T05:48:32;13.73;;;4.10;;
19780;SDS011;10050;55.492;13.506;2022-10-13T05:50:59;6.40;;;3.27;;
19780;SDS011;10050;55.492;13.506;2022-10-13T05:53:29;9.67;;;3.50;;
19780;SDS011;10050;55.492;13.506;2022-10-13T05:55:58;11.50;;;4.17;;
19780;SDS011;10050;55.492;13.506;2022-10-13T05:58:35;10.23;;;3.73;;
19780;SDS011;10050;55.492;13.506;2022-10-13T06:01:05;8.27;;;3.90;;
19780;SDS011;10050;55.492;13.506;2022-10-13T06:03:34;8.30;;;3.43;;
19780;SDS011;10050;55.492;13.506;2022-10-13T06:06:01;10.20;;;4.25;;
19780;SDS011;10050;55.492;13.506;2022-10-13T06:08:27;9.57;;;4.53;;
19780;SDS011;10050;55.492;13.506;2022-10-13T06:10:53;10.80;;;4.50;;
19780;SDS011;10050;55.492;13.506;2022-10-13T06:13:19;12.83;;;4.00;;
19780;SDS011;10050;55.492;13.506;2022-10-13T06:15:45;13.47;;;4.07;;
19780;SDS011;10050;55.492;13.506;2022-10-13T06:18:10;9.80;;;4.60;;
19780;SDS011;10050;55.492;13.506;2022-10-13T06:20:36;10.40;;;3.90;;
19780;SDS011;10050;55.492;13.506;2022-10-13T06:23:01;12.73;;;5.27;;
19780;SDS011;10050;55.492;13.506;2022-10-13T06:25:27;9.53;;;4.47;;
19780;SDS011;10050;55.492;13.506;2022-10-13T06:27:55;13.77;;;4.80;;
19780;SDS011;10050;55.492;13.506;2022-10-13T06:30:21;13.73;;;5.00;;
19780;SDS011;10050;55.492;13.506;2022-10-13T06:32:47;11.33;;;4.93;;
19780;SDS011;10050;55.492;13.506;2022-10-13T06:35:12;9.83;;;4.80;;
19780;SDS011;10050;55.492;13.506;2022-10-13T06:37:38;10.07;;;4.73;;
19780;SDS011;10050;55.492;13.506;2022-10-13T06:40:05;12.30;;;4.47;;
19780;SDS011;10050;55.492;13.506;2022-10-13T06:42:31;9.60;;;5.00;;
19780;SDS011;10050;55.492;13.506;2022-10-13T06:44:58;13.97;;;4.77;;
19780;SDS011;10050;55.492;13.506;2022-10-13T06:47:23;16.23;;;4.87;;
19780;SDS011;10050;55.492;13.506;2022-10-13T06:49:49;10.13;;;4.80;;
19780;SDS011;10050;55.492;13.506;2022-10-13T06:52:15;11.73;;;5.07;;
19780;SDS011;10050;55.492;13.506;2022-10-13T06:54:40;12.43;;;4.83;;
19780;SDS011;10050;55.492;13.506;2022-10-13T06:57:06;10.77;;;5.13;;
19780;SDS011;10050;55.492;13.506;2022-10-13T06:59:32;8.57;;;4.50;;
19780;SDS011;10050;55.492;13.506;2022-10-13T07:01:58;14.83;;;4.60;;
19780;SDS011;10050;55.492;13.506;2022-10-13T07:04:23;12.70;;;5.50;;
19780;SDS011;10050;55.492;13.506;2022-10-13T07:06:49;11.87;;;5.00;;
19780;SDS011;10050;55.492;13.506;2022-10-13T07:09:15;10.30;;;4.60;;
19780;SDS011;10050;55.492;13.506;2022-10-13T07:11:45;14.30;;;4.60;;
19780;SDS011;10050;55.492;13.506;2022-10-13T07:14:12;11.23;;;4.47;;
19780;SDS011;10050;55.492;13.506;2022-10-13T07:16:38;10.93;;;4.63;;
19780;SDS011;10050;55.492;13.506;2022-10-13T07:19:04;9.10;;;4.37;;
19780;SDS011;10050;55.492;13.506;2022-10-13T07:21:29;13.00;;;5.30;;
19780;SDS011;10050;55.492;13.506;2022-10-13T07:23:55;12.70;;;5.30;;
19780;SDS011;10050;55.492;13.506;2022-10-13T07:26:21;11.23;;;4.80;;
19780;SDS011;10050;55.492;13.506;2022-10-13T07:28:46;9.63;;;5.33;;
19780;SDS011;10050;55.492;13.506;2022-10-13T07:31:16;15.03;;;5.27;;
19780;SDS011;10050;55.492;13.506;2022-10-13T07:33:44;7.27;;;4.53;;
19780;SDS011;10050;55.492;13.506;2022-10-13T07:36:11;9.23;;;4.93;;
19780;SDS011;10050;55.492;13.506;2022-10-13T07:38:37;13.93;;;4.67;;
19780;SDS011;10050;55.492;13.506;2022-10-13T07:41:03;18.43;;;5.30;;
19780;SDS011;10050;55.492;13.506;2022-10-13T07:43:30;13.17;;;4.87;;
19780;SDS011;10050;55.492;13.506;2022-10-13T07:46:00;10.13;;;4.43;;
19780;SDS011;10050;55.492;13.506;2022-10-13T07:48:28;15.37;;;5.40;;
19780;SDS011;10050;55.492;13.506;2022-10-13T07:50:54;7.53;;;4.13;;
19780;SDS011;10050;55.492;13.506;2022-10-13T07:53:20;10.50;;;4.17;;
19780;SDS011;10050;55.492;13.506;2022-10-13T07:55:46;8.50;;;4.47;;
19780;SDS011;10050;55.492;13.506;2022-10-13T07:58:12;11.10;;;5.03;;
19780;SDS011;10050;55.492;13.506;2022-10-13T08:00:38;7.93;;;4.47;;
19780;SDS011;10050;55.492;13.506;2022-10-13T08:03:03;10.30;;;4.53;;
19780;SDS011;10050;55.492;13.506;2022-10-13T08:05:29;11.30;;;4.17;;
19780;SDS011;10050;55.492;13.506;2022-10-13T08:07:55;12.60;;;4.37;;
19780;SDS011;10050;55.492;13.506;2022-10-13T08:10:20;9.33;;;3.97;;
19780;SDS011;10050;55.492;13.506;2022-10-13T08:12:46;7.87;;;3.93;;
19780;SDS011;10050;55.492;13.506;2022-10-13T08:15:12;8.17;;;4.30;;
19780;SDS011;10050;55.492;13.506;2022-10-13T08:17:38;9.83;;;4.10;;
19780;SDS011;10050;55.492;13.506;2022-10-13T08:20:04;12.13;;;3.97;;
19780;SDS011;10050;55.492;13.506;2022-10-13T08:22:30;8.03;;;3.77;;
19780;SDS011;10050;55.492;13.506;2022-10-13T08:24:58;5.13;;;3.60;;
19780;SDS011;10050;55.492;13.506;2022-10-13T08:27:25;6.27;;;4.17;;
19780;SDS011;10050;55.492;13.506;2022-10-13T08:29:52;8.97;;;4.10;;
19780;SDS011;10050;55.492;13.506;2022-10-13T08:32:19;9.73;;;4.40;;
19780;SDS011;10050;55.492;13.506;2022-10-13T08:34:48;5.27;;;3.40;;
19780;SDS011;10050;55.492;13.506;2022-10-13T08:37:15;6.40;;;3.83;;
19780;SDS011;10050;55.492;13.506;2022-10-13T08:39:41;8.17;;;4.20;;
19780;SDS011;10050;55.492;13.506;2022-10-13T08:42:18;9.67;;;3.70;;
19780;SDS011;10050;55.492;13.506;2022-10-13T08:47:23;11.73;;;4.27;;
19780;SDS011;10050;55.492;13.506;2022-10-13T08:50:19;7.60;;;4.13;;
19780;SDS011;10050;55.492;13.506;2022-10-13T08:52:57;8.87;;;3.70;;
19780;SDS011;10050;55.492;13.506;2022-10-13T08:55:48;6.90;;;3.53;;
19780;SDS011;10050;55.492;13.506;2022-10-13T08:58:26;5.60;;;3.70;;
19780;SDS011;10050;55.492;13.506;2022-10-13T09:01:15;7.80;;;4.03;;
19780;SDS011;10050;55.492;13.506;2022-10-13T09:04:01;9.87;;;3.77;;
19780;SDS011;10050;55.492;13.506;2022-10-13T09:07:02;5.73;;;3.40;;
19780;SDS011;10050;55.492;13.506;2022-10-13T09:09:31;9.83;;;3.90;;
19780;SDS011;10050;55.492;13.506;2022-10-13T09:11:57;8.77;;;4.37;;
19780;SDS011;10050;55.492;13.506;2022-10-13T09:14:36;8.20;;;4.73;;
19780;SDS011;10050;55.492;13.506;2022-10-13T09:22:42;9.07;;;4.17;;
19780;SDS011;10050;55.492;13.506;2022-10-13T09:30:30;12.13;;;4.10;;
19780;SDS011;10050;55.492;13.506;2022-10-13T09:36:18;8.97;;;4.63;;
19780;SDS011;10050;55.492;13.506;2022-10-13T09:38:26;6.63;;;4.07;;
19780;SDS011;10050;55.492;13.506;2022-10-13T09:40:57;10.27;;;4.20;;
19780;SDS011;10050;55.492;13.506;2022-10-13T09:48:47;12.07;;;4.20;;
19780;SDS011;10050;55.492;13.506;2022-10-13T09:54:04;10.87;;;4.63;;
19780;SDS011;10050;55.492;13.506;2022-10-13T09:56:38;12.57;;;4.07;;
19780;SDS011;10050;55.492;13.506;2022-10-13T09:59:26;10.10;;;5.03;;
19780;SDS011;10050;55.492;13.506;2022-10-13T10:02:42;10.97;;;4.87;;
19780;SDS011;10050;55.492;13.506;2022-10-13T10:05:18;9.50;;;4.67;;
19780;SDS011;10050;55.492;13.506;2022-10-13T10:07:48;10.10;;;3.93;;
19780;SDS011;10050;55.492;13.506;2022-10-13T10:10:20;11.40;;;4.27;;
19780;SDS011;10050;55.492;13.506;2022-10-13T10:12:58;11.00;;;4.33;;
19780;SDS011;10050;55.492;13.506;2022-10-13T10:15:28;8.87;;;4.23;;
19780;SDS011;10050;55.492;13.506;2022-10-13T10:18:15;11.83;;;4.33;;
19780;SDS011;10050;55.492;13.506;2022-10-13T10:23:59;8.73;;;3.97;;
19780;SDS011;10050;55.492;13.506;2022-10-13T10:26:53;11.67;;;4.43;;
19780;SDS011;10050;55.492;13.506;2022-10-13T10:29:27;11.53;;;4.63;;
19780;SDS011;10050;55.492;13.506;2022-10-13T10:35:00;10.43;;;4.20;;
19780;SDS011;10050;55.492;13.506;2022-10-13T10:43:07;11.40;;;4.73;;
19780;SDS011;10050;55.492;13.506;2022-10-13T10:46:23;7.70;;;3.90;;
19780;SDS011;10050;55.492;13.506;2022-10-13T10:51:51;8.53;;;4.40;;
19780;SDS011;10050;55.492;13.506;2022-10-13T10:57:12;10.47;;;4.23;;
19780;SDS011;10050;55.492;13.506;2022-10-13T11:05:12;11.57;;;4.50;;
19780;SDS011;10050;55.492;13.506;2022-10-13T11:10:15;10.53;;;4.67;;
19780;SDS011;10050;55.492;13.506;2022-10-13T11:17:50;8.07;;;5.33;;
19780;SDS011;10050;55.492;13.506;2022-10-13T11:30:46;7.90;;;4.43;;
19780;SDS011;10050;55.492;13.506;2022-10-13T11:41:28;8.80;;;5.10;;
19780;SDS011;10050;55.492;13.506;2022-10-13T11:44:16;10.67;;;5.07;;
19780;SDS011;10050;55.492;13.506;2022-10-13T11:46:58;9.73;;;5.20;;
19780;SDS011;10050;55.492;13.506;2022-10-13T11:55:20;9.03;;;5.30;;
19780;SDS011;10050;55.492;13.506;2022-10-13T11:58:06;8.47;;;5.37;;
19780;SDS011;10050;55.492;13.506;2022-10-13T12:03:30;7.67;;;5.13;;
19780;SDS011;10050;55.492;13.506;2022-10-13T12:06:01;10.57;;;5.83;;
19780;SDS011;10050;55.492;13.506;2022-10-13T12:08:29;11.43;;;5.70;;
19780;SDS011;10050;55.492;13.506;2022-10-13T12:10:57;11.10;;;6.47;;
19780;SDS011;10050;55.492;13.506;2022-10-13T12:13:26;9.27;;;6.23;;
19780;SDS011;10050;55.492;13.506;2022-10-13T12:16:01;10.70;;;6.00;;
19780;SDS011;10050;55.492;13.506;2022-10-13T12:18:34;7.90;;;5.13;;
19780;SDS011;10050;55.492;13.506;2022-10-13T12:21:18;10.70;;;5.60;;
19780;SDS011;10050;55.492;13.506;2022-10-13T12:23:46;9.00;;;6.43;;
19780;SDS011;10050;55.492;13.506;2022-10-13T12:26:20;13.37;;;7.13;;
19780;SDS011;10050;55.492;13.506;2022-10-13T12:28:52;9.93;;;6.47;;
19780;SDS011;10050;55.492;13.506;2022-10-13T12:31:38;14.43;;;6.20;;
19780;SDS011;10050;55.492;13.506;2022-10-13T12:34:16;9.07;;;6.03;;
19780;SDS011;10050;55.492;13.506;2022-10-13T12:37:04;15.83;;;7.27;;
19780;SDS011;10050;55.492;13.506;2022-10-13T12:39:38;10.70;;;6.80;;
19780;SDS011;10050;55.492;13.506;2022-10-13T12:42:05;12.87;;;5.80;;
19780;SDS011;10050;55.492;13.506;2022-10-13T12:44:34;16.63;;;6.83;;
19780;SDS011;10050;55.492;13.506;2022-10-13T12:47:00;11.13;;;5.73;;
19780;SDS011;10050;55.492;13.506;2022-10-13T12:49:31;10.93;;;5.83;;
19780;SDS011;10050;55.492;13.506;2022-10-13T12:52:05;15.53;;;6.30;;
19780;SDS011;10050;55.492;13.506;2022-10-13T12:54:39;12.47;;;5.83;;
19780;SDS011;10050;55.492;13.506;2022-10-13T12:57:19;7.77;;;5.50;;
19780;SDS011;10050;55.492;13.506;2022-10-13T12:59:59;10.10;;;5.47;;
19780;SDS011;10050;55.492;13.506;2022-10-13T13:02:26;9.67;;;5.97;;
19780;SDS011;10050;55.492;13.506;2022-10-13T13:04:54;10.67;;;6.13;;
19780;SDS011;10050;55.492;13.506;2022-10-13T13:12:36;10.97;;;6.27;;
19780;SDS011;10050;55.492;13.506;2022-10-13T13:17:49;12.77;;;6.17;;
19780;SDS011;10050;55.492;13.506;2022-10-13T13:20:29;11.60;;;5.63;;
19780;SDS011;10050;55.492;13.506;2022-10-13T13:22:56;12.90;;;5.70;;
19780;SDS011;10050;55.492;13.506;2022-10-13T13:25:22;10.80;;;6.03;;
19780;SDS011;10050;55.492;13.506;2022-10-13T13:27:48;10.37;;;5.80;;
19780;SDS011;10050;55.492;13.506;2022-10-13T13:30:14;9.13;;;5.60;;
19780;SDS011;10050;55.492;13.506;2022-10-13T13:32:42;11.13;;;6.03;;
19780;SDS011;10050;55.492;13.506;2022-10-13T13:35:08;9.27;;;5.70;;
19780;SDS011;10050;55.492;13.506;2022-10-13T13:37:38;8.77;;;5.47;;
19780;SDS011;10050;55.492;13.506;2022-10-13T13:40:06;13.90;;;5.67;;
19780;SDS011;10050;55.492;13.506;2022-10-13T13:42:39;10.03;;;4.97;;
19780;SDS011;10050;55.492;13.506;2022-10-13T13:45:05;8.37;;;5.23;;
19780;SDS011;10050;55.492;13.506;2022-10-13T13:47:31;13.63;;;6.13;;
19780;SDS011;10050;55.492;13.506;2022-10-13T13:49:57;12.63;;;6.63;;
19780;SDS011;10050;55.492;13.506;2022-10-13T13:52:24;12.73;;;6.13;;
19780;SDS011;10050;55.492;13.506;2022-10-13T13:54:50;11.83;;;6.20;;
19780;SDS011;10050;55.492;13.506;2022-10-13T13:57:16;9.23;;;6.20;;
19780;SDS011;10050;55.492;13.506;2022-10-13T13:59:43;15.80;;;7.50;;
19780;SDS011;10050;55.492;13.506;2022-10-13T14:02:11;11.53;;;7.20;;
19780;SDS011;10050;55.492;13.506;2022-10-13T14:04:42;13.47;;;7.07;;
19780;SDS011;10050;55.492;13.506;2022-10-13T14:07:07;15.27;;;7.63;;
19780;SDS011;10050;55.492;13.506;2022-10-13T14:09:33;13.67;;;7.03;;
19780;SDS011;10050;55.492;13.506;2022-10-13T14:11:59;13.67;;;6.47;;
19780;SDS011;10050;55.492;13.506;2022-10-13T14:14:25;11.30;;;7.20;;
19780;SDS011;10050;55.492;13.506;2022-10-13T14:16:51;14.60;;;7.50;;
19780;SDS011;10050;55.492;13.506;2022-10-13T14:19:16;19.43;;;9.13;;
19780;SDS011;10050;55.492;13.506;2022-10-13T14:21:42;15.15;;;8.88;;
19780;SDS011;10050;55.492;13.506;2022-10-13T14:24:09;18.43;;;7.93;;
19780;SDS011;10050;55.492;13.506;2022-10-13T14:26:36;15.90;;;8.83;;
19780;SDS011;10050;55.492;13.506;2022-10-13T14:29:01;13.40;;;7.87;;
19780;SDS011;10050;55.492;13.506;2022-10-13T14:31:28;16.63;;;7.80;;
19780;SDS011;10050;55.492;13.506;2022-10-13T14:33:54;16.45;;;8.32;;
19780;SDS011;10050;55.492;13.506;2022-10-13T14:36:20;16.97;;;7.63;;
19780;SDS011;10050;55.492;13.506;2022-10-13T14:38:46;12.20;;;7.40;;
19780;SDS011;10050;55.492;13.506;2022-10-13T14:41:12;13.07;;;6.80;;
19780;SDS011;10050;55.492;13.506;2022-10-13T14:43:39;12.13;;;7.77;;
19780;SDS011;10050;55.492;13.506;2022-10-13T14:46:05;15.90;;;7.93;;
19780;SDS011;10050;55.492;13.506;2022-10-13T14:48:31;15.57;;;10.27;;
19780;SDS011;10050;55.492;13.506;2022-10-13T14:50:58;21.27;;;12.17;;
19780;SDS011;10050;55.492;13.506;2022-10-13T14:53:27;16.43;;;8.07;;
19780;SDS011;10050;55.492;13.506;2022-10-13T14:55:52;19.37;;;10.57;;
19780;SDS011;10050;55.492;13.506;2022-10-13T14:58:18;14.77;;;8.07;;
19780;SDS011;10050;55.492;13.506;2022-10-13T15:00:44;16.13;;;9.20;;
19780;SDS011;10050;55.492;13.506;2022-10-13T15:03:10;17.50;;;8.20;;
19780;SDS011;10050;55.492;13.506;2022-10-13T15:05:35;16.50;;;7.80;;
19780;SDS011;10050;55.492;13.506;2022-10-13T15:08:01;14.10;;;8.50;;
19780;SDS011;10050;55.492;13.506;2022-10-13T15:10:27;12.87;;;7.60;;
19780;SDS011;10050;55.492;13.506;2022-10-13T15:12:54;14.70;;;9.50;;
19780;SDS011;10050;55.492;13.506;2022-10-13T15:15:20;12.23;;;7.67;;
19780;SDS011;10050;55.492;13.506;2022-10-13T15:17:45;19.07;;;7.73;;
19780;SDS011;10050;55.492;13.506;2022-10-13T15:20:11;15.83;;;8.83;;
19780;SDS011;10050;55.492;13.506;2022-10-13T15:22:37;13.43;;;7.03;;
19780;SDS011;10050;55.492;13.506;2022-10-13T15:25:03;15.13;;;9.10;;
19780;SDS011;10050;55.492;13.506;2022-10-13T15:27:33;16.20;;;9.73;;
19780;SDS011;10050;55.492;13.506;2022-10-13T15:29:59;17.23;;;9.80;;
19780;SDS011;10050;55.492;13.506;2022-10-13T15:32:25;14.33;;;7.57;;
19780;SDS011;10050;55.492;13.506;2022-10-13T15:34:50;18.60;;;11.43;;
19780;SDS011;10050;55.492;13.506;2022-10-13T15:37:16;18.70;;;11.70;;
19780;SDS011;10050;55.492;13.506;2022-10-13T15:39:42;15.13;;;9.00;;
19780;SDS011;10050;55.492;13.506;2022-10-13T15:42:07;25.20;;;13.77;;
19780;SDS011;10050;55.492;13.506;2022-10-13T15:44:35;19.33;;;11.37;;
19780;SDS011;10050;55.492;13.506;2022-10-13T15:47:01;15.37;;;7.90;;
19780;SDS011;10050;55.492;13.506;2022-10-13T15:49:27;11.87;;;7.57;;
19780;SDS011;10050;55.492;13.506;2022-10-13T15:51:52;14.20;;;7.80;;
19780;SDS011;10050;55.492;13.506;2022-10-13T15:54:19;18.63;;;8.73;;
19780;SDS011;10050;55.492;13.506;2022-10-13T15:56:45;14.10;;;9.13;;
19780;SDS011;10050;55.492;13.506;2022-10-13T15:59:11;12.33;;;7.90;;
19780;SDS011;10050;55.492;13.506;2022-10-13T16:01:37;14.00;;;7.47;;
19780;SDS011;10050;55.492;13.506;2022-10-13T16:04:03;12.37;;;8.13;;
19780;SDS011;10050;55.492;13.506;2022-10-13T16:06:28;13.30;;;7.97;;
19780;SDS011;10050;55.492;13.506;2022-10-13T16:08:55;13.57;;;7.50;;
19780;SDS011;10050;55.492;13.506;2022-10-13T16:11:21;18.73;;;8.83;;
19780;SDS011;10050;55.492;13.506;2022-10-13T16:13:47;16.77;;;8.53;;
19780;SDS011;10050;55.492;13.506;2022-10-13T16:16:16;18.27;;;8.80;;
19780;SDS011;10050;55.492;13.506;2022-10-13T16:18:43;14.93;;;8.93;;
19780;SDS011;10050;55.492;13.506;2022-10-13T16:21:10;20.63;;;9.60;;
19780;SDS011;10050;55.492;13.506;2022-10-13T16:23:37;18.47;;;9.50;;
19780;SDS011;10050;55.492;13.506;2022-10-13T16:26:03;17.10;;;8.43;;
19780;SDS011;10050;55.492;13.506;2022-10-13T16:28:30;16.63;;;8.93;;
19780;SDS011;10050;55.492;13.506;2022-10-13T16:30:55;13.73;;;9.10;;
19780;SDS011;10050;55.492;13.506;2022-10-13T16:33:21;18.60;;;9.40;;